Time;durP1;ratioP1;P1;durP2;ratioP2;P2;SDS_P1;SDS_P2;PMS_P1;PMS_P2;Temp;Humidity;BMP_temperature;BMP_pressure;BME280_temperature;BME280_humidity;BME280_pressure;Samples;Min_cycle;Max_cycle;Signal;HPM_P1;HPM_P2
2022/03/26 00:00:57;;;;;;;12.70;7.78;;;;;;;;;;6247333;22;20008;-73
2022/03/26 00:03:23;;;;;;;9.32;6.90;;;;;;;;;;6247853;22;20479;-71
2022/03/26 00:05:49;;;;;;;10.48;6.85;;;;;;;;;;6249517;22;20035;-73
2022/03/26 00:08:16;;;;;;;9.50;8.52;;;;;;;;;;6275226;22;20038;-72
2022/03/26 00:10:42;;;;;;;6.97;6.10;;;;;;;;;;6272602;22;20495;-73
2022/03/26 00:13:07;;;;;;;10.82;7.65;;;;;;;;;;6261198;22;20069;-73
2022/03/26 00:15:33;;;;;;;13.15;7.30;;;;;;;;;;6298697;22;20095;-73
2022/03/26 00:18:00;;;;;;;9.63;7.80;;;;;;;;;;6273340;22;20015;-73
2022/03/26 00:20:26;;;;;;;7.47;6.20;;;;;;;;;;6274164;22;20011;-74
2022/03/26 00:22:52;;;;;;;6.78;6.18;;;;;;;;;;6274569;22;20148;-74
2022/03/26 00:25:18;;;;;;;15.32;9.18;;;;;;;;;;6298940;22;20007;-74
2022/03/26 00:27:43;;;;;;;10.77;9.35;;;;;;;;;;6298682;22;20478;-72
2022/03/26 00:30:11;;;;;;;7.60;6.90;;;;;;;;;;6274803;22;20420;-73
2022/03/26 00:32:37;;;;;;;12.73;7.68;;;;;;;;;;6274097;22;20024;-74
2022/03/26 00:35:03;;;;;;;10.48;7.55;;;;;;;;;;6272457;22;20354;-73
2022/03/26 00:37:29;;;;;;;13.93;8.55;;;;;;;;;;6274117;22;20086;-73
2022/03/26 00:39:55;;;;;;;9.75;7.05;;;;;;;;;;6274608;22;20077;-74
2022/03/26 00:42:21;;;;;;;7.93;6.30;;;;;;;;;;6298279;22;20054;-74
2022/03/26 00:44:47;;;;;;;11.60;6.95;;;;;;;;;;6272826;22;20008;-74
2022/03/26 00:47:13;;;;;;;8.73;7.78;;;;;;;;;;6272663;22;20328;-73
2022/03/26 00:49:38;;;;;;;11.32;8.32;;;;;;;;;;6298493;22;20018;-74
2022/03/26 00:52:04;;;;;;;9.45;6.75;;;;;;;;;;6274165;22;20019;-72
2022/03/26 00:54:31;;;;;;;6.38;5.82;;;;;;;;;;6298254;22;20463;-72
2022/03/26 00:56:57;;;;;;;8.93;6.22;;;;;;;;;;6272582;22;20383;-71
2022/03/26 00:59:23;;;;;;;6.78;6.18;;;;;;;;;;6298770;22;20014;-73
2022/03/26 01:01:49;;;;;;;10.77;7.20;;;;;;;;;;6274218;22;20016;-72
2022/03/26 01:04:15;;;;;;;9.90;6.88;;;;;;;;;;6272902;22;20011;-72
2022/03/26 01:06:41;;;;;;;8.45;6.38;;;;;;;;;;6274428;22;20015;-75
2022/03/26 01:09:07;;;;;;;7.57;6.88;;;;;;;;;;6274590;22;20502;-73
2022/03/26 01:11:34;;;;;;;10.88;7.72;;;;;;;;;;6272556;22;20035;-73
2022/03/26 01:14:00;;;;;;;9.98;8.15;;;;;;;;;;6274620;22;20015;-72
2022/03/26 01:16:26;;;;;;;10.63;8.20;;;;;;;;;;6274824;22;20007;-73
2022/03/26 01:18:52;;;;;;;12.45;8.65;;;;;;;;;;6278196;22;20007;-72
2022/03/26 01:21:18;;;;;;;13.70;8.38;;;;;;;;;;6279472;22;20030;-73
2022/03/26 01:23:46;;;;;;;10.73;6.05;;;;;;;;;;6278740;22;20398;-71
2022/03/26 01:26:13;;;;;;;7.47;6.68;;;;;;;;;;6275298;22;20073;-73
2022/03/26 01:28:39;;;;;;;9.55;8.30;;;;;;;;;;6277616;22;20007;-74
2022/03/26 01:31:05;;;;;;;10.77;7.80;;;;;;;;;;6276136;22;20019;-73
2022/03/26 01:33:31;;;;;;;10.05;8.07;;;;;;;;;;6279353;22;20019;-73
2022/03/26 01:35:57;;;;;;;12.02;7.75;;;;;;;;;;6278536;22;20366;-72
2022/03/26 01:38:23;;;;;;;9.32;7.10;;;;;;;;;;6248596;22;20065;-72
2022/03/26 01:40:49;;;;;;;9.35;6.28;;;;;;;;;;6276241;22;20011;-73
2022/03/26 01:43:15;;;;;;;13.15;9.27;;;;;;;;;;6275850;22;20471;-72
2022/03/26 01:45:41;;;;;;;12.32;7.80;;;;;;;;;;6273463;22;20008;-71
2022/03/26 01:48:07;;;;;;;9.88;7.88;;;;;;;;;;6274569;22;20501;-71
2022/03/26 01:50:33;;;;;;;7.55;6.80;;;;;;;;;;6273346;22;20012;-72
2022/03/26 01:52:59;;;;;;;11.77;7.68;;;;;;;;;;6271763;22;20023;-72
2022/03/26 01:55:25;;;;;;;10.05;7.68;;;;;;;;;;6271719;22;20165;-73
2022/03/26 01:57:51;;;;;;;9.20;8.30;;;;;;;;;;6246244;22;20022;-73
2022/03/26 02:00:17;;;;;;;9.07;8.27;;;;;;;;;;6273896;22;20008;-74
2022/03/26 02:02:46;;;;;;;12.35;7.65;;;;;;;;;;6271840;22;20015;-73
2022/03/26 02:05:15;;;;;;;9.23;8.27;;;;;;;;;;6246731;22;20348;-73
2022/03/26 02:07:42;;;;;;;8.02;6.80;;;;;;;;;;6271604;22;20030;-72
2022/03/26 02:10:08;;;;;;;10.75;8.82;;;;;;;;;;6272019;22;20087;-74
2022/03/26 02:12:34;;;;;;;10.50;7.97;;;;;;;;;;6272796;22;20106;-73
2022/03/26 02:15:00;;;;;;;8.80;7.38;;;;;;;;;;6271774;22;20435;-73
2022/03/26 02:17:26;;;;;;;7.82;7.03;;;;;;;;;;6271814;22;20447;-74
2022/03/26 02:19:53;;;;;;;12.20;8.98;;;;;;;;;;6273799;22;20007;-74
2022/03/26 02:22:20;;;;;;;7.47;6.60;;;;;;;;;;6273535;22;20094;-73
2022/03/26 02:24:46;;;;;;;9.02;8.13;;;;;;;;;;6246348;22;20015;-72
2022/03/26 02:27:12;;;;;;;9.85;7.07;;;;;;;;;;6271629;22;20022;-72
2022/03/26 02:29:38;;;;;;;14.48;7.35;;;;;;;;;;6273036;22;20039;-72
2022/03/26 02:32:04;;;;;;;8.50;6.20;;;;;;;;;;6273142;22;20077;-72
2022/03/26 02:34:30;;;;;;;9.52;8.05;;;;;;;;;;6271846;22;20012;-72
2022/03/26 02:36:56;;;;;;;12.40;8.68;;;;;;;;;;6246523;22;20018;-73
2022/03/26 02:39:22;;;;;;;9.20;7.50;;;;;;;;;;6274452;22;20011;-72
2022/03/26 02:41:48;;;;;;;7.80;6.95;;;;;;;;;;6249296;22;20011;-72
2022/03/26 02:44:14;;;;;;;10.25;9.13;;;;;;;;;;6247884;22;20063;-71
2022/03/26 02:46:40;;;;;;;9.38;6.85;;;;;;;;;;6276882;22;20035;-72
2022/03/26 02:49:05;;;;;;;8.07;7.28;;;;;;;;;;6276743;22;20015;-72
2022/03/26 02:51:31;;;;;;;8.15;7.35;;;;;;;;;;6273179;22;20018;-71
2022/03/26 02:53:57;;;;;;;8.25;7.45;;;;;;;;;;6245964;22;20122;-73
2022/03/26 02:56:23;;;;;;;9.45;7.22;;;;;;;;;;6246434;22;20008;-72
2022/03/26 02:58:49;;;;;;;11.80;7.05;;;;;;;;;;6248449;22;20016;-72
2022/03/26 03:01:15;;;;;;;7.75;6.65;;;;;;;;;;6274796;22;20007;-72
2022/03/26 03:03:41;;;;;;;8.20;6.78;;;;;;;;;;6273607;22;20541;-71
2022/03/26 03:06:07;;;;;;;9.88;8.52;;;;;;;;;;6271258;22;20019;-70
2022/03/26 03:08:33;;;;;;;8.20;7.22;;;;;;;;;;6272686;22;20011;-72
2022/03/26 03:10:59;;;;;;;9.15;6.57;;;;;;;;;;6271248;22;20020;-72
2022/03/26 03:13:25;;;;;;;8.80;7.90;;;;;;;;;;6272224;22;20035;-73
2022/03/26 03:15:51;;;;;;;8.77;6.07;;;;;;;;;;6272857;22;20073;-72
2022/03/26 03:18:17;;;;;;;13.50;8.27;;;;;;;;;;6272730;22;20069;-72
2022/03/26 03:20:43;;;;;;;8.90;6.47;;;;;;;;;;6272705;22;20007;-73
2022/03/26 03:23:09;;;;;;;12.10;7.03;;;;;;;;;;6272889;22;20422;-72
2022/03/26 03:25:35;;;;;;;7.28;6.55;;;;;;;;;;6245558;22;20011;-72
2022/03/26 03:28:01;;;;;;;9.80;6.82;;;;;;;;;;6245881;22;20100;-72
2022/03/26 03:30:27;;;;;;;15.38;8.38;;;;;;;;;;6245652;22;20007;-72
2022/03/26 03:32:53;;;;;;;7.80;6.85;;;;;;;;;;6270644;22;20034;-71
2022/03/26 03:35:21;;;;;;;8.60;7.30;;;;;;;;;;6272758;22;20011;-72
2022/03/26 03:37:47;;;;;;;8.35;6.95;;;;;;;;;;6272395;22;20073;-72
2022/03/26 03:40:13;;;;;;;5.95;5.38;;;;;;;;;;6273076;22;20011;-73
2022/03/26 03:42:39;;;;;;;6.97;6.13;;;;;;;;;;6272533;22;20012;-73
2022/03/26 03:45:05;;;;;;;6.25;5.70;;;;;;;;;;6271363;22;20452;-74
2022/03/26 03:47:31;;;;;;;6.75;6.15;;;;;;;;;;6272343;22;20015;-73
2022/03/26 03:49:58;;;;;;;10.55;8.13;;;;;;;;;;6245477;22;20011;-73
2022/03/26 03:52:23;;;;;;;11.55;8.57;;;;;;;;;;6272706;22;20367;-73
2022/03/26 03:54:49;;;;;;;10.90;8.10;;;;;;;;;;6272965;22;20471;-72
2022/03/26 03:57:15;;;;;;;9.93;6.57;;;;;;;;;;6245659;22;20019;-74
2022/03/26 03:59:41;;;;;;;14.73;7.28;;;;;;;;;;6272823;22;20008;-73
2022/03/26 04:02:09;;;;;;;14.40;8.57;;;;;;;;;;6272929;22;20016;-73
2022/03/26 04:04:42;;;;;;;10.52;5.65;;;;;;;;;;6272936;22;20012;-74
2022/03/26 04:07:07;;;;;;;7.47;6.80;;;;;;;;;;6271963;22;20039;-72
2022/03/26 04:09:34;;;;;;;8.23;6.90;;;;;;;;;;6271646;22;20012;-72
2022/03/26 04:12:00;;;;;;;7.38;6.35;;;;;;;;;;6272326;22;20019;-70
2022/03/26 04:14:26;;;;;;;9.82;7.78;;;;;;;;;;6297254;22;20525;-71
2022/03/26 04:16:52;;;;;;;7.80;7.10;;;;;;;;;;6273164;22;20011;-71
2022/03/26 04:19:19;;;;;;;10.70;7.38;;;;;;;;;;6247093;22;20008;-71
2022/03/26 04:21:45;;;;;;;8.95;6.60;;;;;;;;;;6273427;22;20012;-72
2022/03/26 04:24:12;;;;;;;11.55;6.30;;;;;;;;;;6275067;22;20208;-71
2022/03/26 04:26:38;;;;;;;11.55;9.05;;;;;;;;;;6245304;22;20060;-72
2022/03/26 04:29:04;;;;;;;7.07;6.38;;;;;;;;;;6272665;22;20012;-72
2022/03/26 04:31:29;;;;;;;11.45;7.13;;;;;;;;;;6272681;22;20497;-71
2022/03/26 04:34:01;;;;;;;10.65;8.50;;;;;;;;;;6296756;22;20023;-71
2022/03/26 04:36:28;;;;;;;9.65;7.03;;;;;;;;;;6296417;22;20012;-71
2022/03/26 04:38:54;;;;;;;8.20;7.40;;;;;;;;;;6271621;22;20095;-72
2022/03/26 04:41:19;;;;;;;7.28;5.88;;;;;;;;;;6297291;22;20408;-73
2022/03/26 04:43:45;;;;;;;7.32;5.85;;;;;;;;;;6273460;22;20042;-72
2022/03/26 04:46:11;;;;;;;8.40;6.95;;;;;;;;;;6274227;22;20018;-73
2022/03/26 04:48:37;;;;;;;12.18;8.02;;;;;;;;;;6273002;22;20012;-72
2022/03/26 04:51:03;;;;;;;16.13;7.57;;;;;;;;;;6298459;22;20015;-72
2022/03/26 04:53:29;;;;;;;10.32;8.93;;;;;;;;;;6272778;22;20494;-71
2022/03/26 04:55:55;;;;;;;10.05;8.18;;;;;;;;;;6273931;22;20011;-71
2022/03/26 04:58:21;;;;;;;7.53;6.32;;;;;;;;;;6273491;22;20084;-72
2022/03/26 05:00:47;;;;;;;10.82;6.38;;;;;;;;;;6275820;22;20118;-72
2022/03/26 05:03:12;;;;;;;6.55;5.55;;;;;;;;;;6278571;22;20012;-72
2022/03/26 05:05:38;;;;;;;7.15;6.20;;;;;;;;;;6277630;22;20012;-72
2022/03/26 05:08:04;;;;;;;12.30;8.35;;;;;;;;;;6277802;22;20019;-72
2022/03/26 05:10:30;;;;;;;9.63;6.18;;;;;;;;;;6277660;22;20018;-73
2022/03/26 05:12:56;;;;;;;13.30;9.15;;;;;;;;;;6263497;22;20027;-71
2022/03/26 05:15:22;;;;;;;8.05;7.25;;;;;;;;;;6275402;22;20356;-71
2022/03/26 05:17:48;;;;;;;9.93;8.05;;;;;;;;;;6273985;22;20355;-71
2022/03/26 05:20:14;;;;;;;13.73;8.00;;;;;;;;;;6274087;22;20016;-71
2022/03/26 05:22:40;;;;;;;10.48;7.15;;;;;;;;;;6275063;22;20324;-71
2022/03/26 05:25:07;;;;;;;10.35;7.50;;;;;;;;;;6274876;22;20455;-71
2022/03/26 05:27:32;;;;;;;12.25;7.82;;;;;;;;;;6274307;22;20098;-72
2022/03/26 05:29:58;;;;;;;7.70;6.78;;;;;;;;;;6271144;22;20043;-73
2022/03/26 05:32:24;;;;;;;10.25;8.00;;;;;;;;;;6275562;22;20027;-73
2022/03/26 05:34:50;;;;;;;11.80;8.43;;;;;;;;;;6276047;22;20007;-72
2022/03/26 05:37:16;;;;;;;9.15;6.95;;;;;;;;;;6274280;22;20069;-73
2022/03/26 05:39:42;;;;;;;8.93;7.85;;;;;;;;;;6276014;22;20015;-73
2022/03/26 05:42:09;;;;;;;8.82;7.53;;;;;;;;;;6277056;22;20091;-72
2022/03/26 05:44:35;;;;;;;10.23;7.22;;;;;;;;;;6277780;22;20102;-72
2022/03/26 05:47:01;;;;;;;9.23;7.30;;;;;;;;;;6278733;22;20605;-74
2022/03/26 05:49:27;;;;;;;11.77;7.57;;;;;;;;;;6278215;22;20198;-72
2022/03/26 05:51:53;;;;;;;18.10;8.25;;;;;;;;;;6279295;22;20027;-73
2022/03/26 05:54:19;;;;;;;11.85;7.22;;;;;;;;;;6290264;22;20020;-74
2022/03/26 05:56:54;;;;;;;9.25;7.20;;;;;;;;;;6291858;22;20008;-74
2022/03/26 05:59:20;;;;;;;8.68;7.78;;;;;;;;;;6288689;22;20012;-74
2022/03/26 06:01:47;;;;;;;8.45;7.00;;;;;;;;;;6284579;22;20019;-74
2022/03/26 06:04:13;;;;;;;8.43;6.38;;;;;;;;;;6286291;22;20042;-74
2022/03/26 06:06:38;;;;;;;11.70;7.20;;;;;;;;;;6275371;22;20024;-72
2022/03/26 06:09:04;;;;;;;7.88;6.78;;;;;;;;;;6272555;22;20447;-72
2022/03/26 23:47:39;;;;;;;1.33;1.33;;;;;;;;;;6272924;22;20114;-77
2022/03/26 23:50:06;;;;;;;1.58;1.48;;;;;;;;;;6246272;22;20066;-77
2022/03/26 23:52:32;;;;;;;1.45;1.42;;;;;;;;;;6274068;22;20094;-78
2022/03/26 23:54:58;;;;;;;1.60;1.52;;;;;;;;;;6246995;22;20046;-76
2022/03/26 23:57:24;;;;;;;1.23;1.23;;;;;;;;;;6273067;22;20008;-76
2022/03/26 23:59:50;;;;;;;1.80;1.70;;;;;;;;;;6272488;22;20466;-75
